createdAt,value
2022-08-31T00:00:10.559Z,49.39
2022-08-31T00:02:55.861Z,49.72
2022-08-31T00:05:24.122Z,49.79
2022-08-31T00:07:52.674Z,49.31
2022-08-31T00:10:31.914Z,49.28
2022-08-31T00:13:02.547Z,48.76
2022-08-31T00:15:32.155Z,48.81
2022-08-31T00:18:00.301Z,49.75
2022-08-31T00:20:33.969Z,49.92
2022-08-31T00:23:02.532Z,50.49
2022-08-31T00:25:31.074Z,50.82
2022-08-31T00:27:59.628Z,50.82
2022-08-31T00:30:27.385Z,49.64
2022-08-31T00:32:58.211Z,49.21
2022-08-31T00:35:26.369Z,49.25
2022-08-31T00:37:54.056Z,49.01
2022-08-31T00:40:22.176Z,49.57
2022-08-31T00:42:49.930Z,49.88
2022-08-31T00:45:17.777Z,50.28
2022-08-31T00:47:45.564Z,50.12
2022-08-31T00:50:17.123Z,50.32
2022-08-31T00:52:49.478Z,50.95
2022-08-31T00:55:20.601Z,52.47
2022-08-31T00:57:52.440Z,52.78
2022-08-31T01:00:23.308Z,54.20
2022-08-31T01:02:51.579Z,53.93
2022-08-31T01:05:22.086Z,53.35
2022-08-31T01:07:51.349Z,53.42
2022-08-31T01:10:23.673Z,53.82
2022-08-31T01:12:53.955Z,53.96
2022-08-31T01:15:22.671Z,54.12
2022-08-31T01:17:53.174Z,54.36
2022-08-31T01:20:26.877Z,54.43
2022-08-31T01:23:05.068Z,55.17
2022-08-31T01:25:33.874Z,54.75
2022-08-31T01:28:05.557Z,54.82
2022-08-31T01:30:34.015Z,55.26
2022-08-31T01:33:02.065Z,54.91
2022-08-31T01:35:30.077Z,54.86
2022-08-31T01:37:59.850Z,56.94
2022-08-31T01:40:34.806Z,58.05
2022-08-31T01:43:02.519Z,57.65
2022-08-31T01:45:30.401Z,57.33
2022-08-31T01:48:00.321Z,58.47
2022-08-31T01:50:28.174Z,58.31
2022-08-31T01:52:55.903Z,59.08
2022-08-31T01:55:25.766Z,59.92
2022-08-31T01:57:53.693Z,59.83
2022-08-31T02:00:22.143Z,60.70
2022-08-31T02:02:50.495Z,61.02
2022-08-31T02:05:18.968Z,60.41
2022-08-31T02:07:47.059Z,60.50
2022-08-31T02:10:14.911Z,60.83
2022-08-31T02:12:44.076Z,61.28
2022-08-31T02:15:12.320Z,62.16
2022-08-31T02:17:40.331Z,64.31
2022-08-31T02:20:11.214Z,64.50
2022-08-31T02:22:39.252Z,64.76
2022-08-31T02:25:08.660Z,65.85
2022-08-31T02:27:38.095Z,66.89
2022-08-31T02:30:10.007Z,68.19
2022-08-31T02:32:37.917Z,69.00
2022-08-31T02:35:06.643Z,69.84
2022-08-31T02:37:34.350Z,70.04
2022-08-31T02:40:04.272Z,70.83
2022-08-31T02:42:53.802Z,71.70
2022-08-31T02:45:22.637Z,71.31
2022-08-31T02:47:50.377Z,70.45
2022-08-31T02:50:21.305Z,70.71
2022-08-31T02:52:49.854Z,70.52
2022-08-31T02:55:18.171Z,70.39
2022-08-31T02:57:49.897Z,71.45
2022-08-31T03:00:19.366Z,71.80
2022-08-31T03:02:49.304Z,72.74
2022-08-31T03:05:17.185Z,71.90
2022-08-31T03:07:45.386Z,72.43
2022-08-31T03:10:14.962Z,73.66
2022-08-31T03:12:43.570Z,73.79
2022-08-31T03:15:12.238Z,74.64
2022-08-31T03:17:39.961Z,74.32
2022-08-31T03:20:11.209Z,74.37
2022-08-31T03:22:39.115Z,74.52
2022-08-31T03:25:09.089Z,74.40
2022-08-31T03:27:37.313Z,74.91
2022-08-31T03:30:08.498Z,74.70
2022-08-31T03:32:36.749Z,75.68
2022-08-31T03:35:05.837Z,74.91
2022-08-31T03:37:35.014Z,75.90
2022-08-31T03:40:03.301Z,74.90
2022-08-31T03:42:32.239Z,72.69
2022-08-31T03:45:00.148Z,72.27
2022-08-31T03:47:28.389Z,73.49
2022-08-31T03:49:56.696Z,73.69
2022-08-31T03:52:24.654Z,73.55
2022-08-31T03:54:53.681Z,72.69
2022-08-31T03:57:21.419Z,71.83
2022-08-31T03:59:49.088Z,71.59
2022-08-31T04:02:16.809Z,71.15
2022-08-31T04:04:44.638Z,71.22
2022-08-31T04:07:12.446Z,69.43
2022-08-31T04:09:40.209Z,69.45
2022-08-31T04:12:09.385Z,71.32
2022-08-31T04:14:37.062Z,71.33
2022-08-31T04:17:04.778Z,71.30
2022-08-31T04:19:32.541Z,71.13
2022-08-31T04:22:00.162Z,71.14
2022-08-31T04:24:27.973Z,70.52
2022-08-31T04:26:55.911Z,71.11
2022-08-31T04:29:24.926Z,70.77
2022-08-31T04:31:52.589Z,70.72
2022-08-31T04:34:20.355Z,71.02
2022-08-31T04:36:48.227Z,68.76
2022-08-31T04:39:16.846Z,68.92
2022-08-31T04:41:44.817Z,70.60
2022-08-31T04:44:16.432Z,71.88
2022-08-31T04:46:48.762Z,71.93
2022-08-31T04:49:16.439Z,71.74
2022-08-31T04:51:45.239Z,70.33
2022-08-31T04:54:15.012Z,70.16
2022-08-31T04:56:44.610Z,70.82
2022-08-31T04:59:14.615Z,70.52
2022-08-31T05:01:45.853Z,70.27
2022-08-31T05:04:16.559Z,69.79
2022-08-31T05:06:46.067Z,69.96
2022-08-31T05:09:16.609Z,70.45
2022-08-31T05:11:44.673Z,67.94
2022-08-31T05:14:12.530Z,67.80
2022-08-31T05:16:42.175Z,65.98
2022-08-31T05:19:09.850Z,67.27
2022-08-31T05:21:40.912Z,67.67
2022-08-31T05:24:11.751Z,68.22
2022-08-31T05:26:44.046Z,69.08
2022-08-31T05:29:14.156Z,68.67
2022-08-31T05:31:42.937Z,68.93
2022-08-31T05:34:12.463Z,68.98
2022-08-31T05:36:42.488Z,69.49
2022-08-31T05:39:11.659Z,70.75
2022-08-31T05:41:40.630Z,70.08
2022-08-31T05:44:08.657Z,69.90
2022-08-31T05:46:36.862Z,69.54
2022-08-31T05:49:07.094Z,68.93
2022-08-31T05:51:38.351Z,69.64
2022-08-31T05:54:08.552Z,69.22
2022-08-31T05:56:36.197Z,68.54
2022-08-31T05:59:04.551Z,67.93
2022-08-31T06:01:35.067Z,68.00
2022-08-31T06:04:03.984Z,67.78
2022-08-31T06:06:31.961Z,67.41
2022-08-31T06:09:00.141Z,68.36
2022-08-31T06:11:31.672Z,67.65
2022-08-31T06:14:01.227Z,66.56
2022-08-31T06:16:30.644Z,66.93
2022-08-31T06:18:58.786Z,66.70
2022-08-31T06:21:31.070Z,68.53
2022-08-31T06:23:59.358Z,67.46
2022-08-31T06:26:30.338Z,67.39
2022-08-31T06:29:00.073Z,67.02
2022-08-31T06:31:32.897Z,66.87
2022-08-31T06:34:03.739Z,66.93
2022-08-31T06:36:32.752Z,67.31
2022-08-31T06:39:02.281Z,67.01
2022-08-31T06:41:36.613Z,67.48
2022-08-31T06:44:07.689Z,66.90
2022-08-31T06:46:36.842Z,67.10
2022-08-31T06:49:04.747Z,67.66
2022-08-31T06:51:36.501Z,66.66
2022-08-31T06:54:27.578Z,67.31
2022-08-31T06:57:02.727Z,67.04
2022-08-31T06:59:30.453Z,67.68
2022-08-31T07:01:59.573Z,67.30
2022-08-31T07:04:28.379Z,68.16
2022-08-31T07:06:56.225Z,67.51
2022-08-31T07:09:23.932Z,68.02
2022-08-31T07:11:53.484Z,66.91
2022-08-31T07:14:24.622Z,66.56
2022-08-31T07:16:53.712Z,67.62
2022-08-31T07:19:22.940Z,68.71
2022-08-31T07:21:53.192Z,68.64
2022-08-31T07:24:24.095Z,69.28
2022-08-31T07:26:54.281Z,69.33
2022-08-31T07:29:23.941Z,68.12
2022-08-31T07:31:52.038Z,67.18
2022-08-31T07:34:21.734Z,68.61
2022-08-31T07:37:07.145Z,70.07
2022-08-31T07:39:53.643Z,74.15
2022-08-31T07:42:24.958Z,77.45
2022-08-31T07:44:55.320Z,77.78
2022-08-31T07:47:27.104Z,77.55
2022-08-31T07:49:56.035Z,78.56
2022-08-31T07:52:27.334Z,79.20
2022-08-31T07:54:59.934Z,78.43
2022-08-31T07:57:30.247Z,76.78
2022-08-31T08:00:08.503Z,79.49
2022-08-31T08:02:39.099Z,84.61
2022-08-31T08:05:08.482Z,88.71
2022-08-31T08:07:37.169Z,88.69
2022-08-31T08:10:07.806Z,86.94
2022-08-31T08:12:36.347Z,89.92
2022-08-31T08:15:07.244Z,92.73
2022-08-31T08:17:35.055Z,92.58
2022-08-31T08:20:02.804Z,95.60
2022-08-31T08:22:51.849Z,96.29
2022-08-31T08:25:25.767Z,96.40
2022-08-31T08:27:54.676Z,93.86
2022-08-31T08:30:24.381Z,95.69
2022-08-31T08:32:52.217Z,91.90
2022-08-31T08:35:20.231Z,91.33
2022-08-31T08:37:58.429Z,91.05
2022-08-31T08:40:34.111Z,91.86
2022-08-31T08:43:02.836Z,89.08
2022-08-31T08:45:32.932Z,90.51
2022-08-31T08:48:01.903Z,90.43
2022-08-31T08:50:31.626Z,90.46
2022-08-31T08:53:03.854Z,90.61
2022-08-31T08:55:36.837Z,94.91
2022-08-31T08:58:07.875Z,96.09
2022-08-31T09:00:38.621Z,94.59
2022-08-31T09:03:17.066Z,95.43
2022-08-31T09:06:02.206Z,97.48
2022-08-31T09:09:08.130Z,97.98
2022-08-31T09:11:49.616Z,99.72
2022-08-31T09:14:33.118Z,100.00
2022-08-31T09:17:09.545Z,99.73
2022-08-31T09:19:51.594Z,100.00
2022-08-31T09:22:19.358Z,100.00
2022-08-31T09:24:52.963Z,100.00
2022-08-31T09:27:46.719Z,100.00
2022-08-31T09:30:32.643Z,100.00
2022-08-31T09:33:01.865Z,100.00
2022-08-31T09:35:41.147Z,100.00
2022-08-31T09:38:11.314Z,100.00
2022-08-31T09:40:42.480Z,100.00
2022-08-31T09:43:13.752Z,100.00
2022-08-31T09:45:57.648Z,100.00
2022-08-31T09:48:49.736Z,100.00
2022-08-31T09:51:22.723Z,100.00
2022-08-31T09:54:10.983Z,100.00
2022-08-31T09:56:56.663Z,100.00
2022-08-31T09:59:37.605Z,100.00
2022-08-31T10:02:09.606Z,100.00
2022-08-31T10:04:50.957Z,100.00
2022-08-31T10:07:32.960Z,100.00
2022-08-31T10:10:04.735Z,100.00
2022-08-31T10:12:43.853Z,100.00
2022-08-31T10:15:17.685Z,100.00
2022-08-31T10:17:55.370Z,100.00
2022-08-31T10:20:31.914Z,100.00
2022-08-31T10:23:08.719Z,100.00
2022-08-31T10:25:42.821Z,100.00
2022-08-31T10:28:14.768Z,100.00
2022-08-31T10:30:51.233Z,100.00
2022-08-31T10:33:23.040Z,100.00
2022-08-31T10:35:57.486Z,100.00
2022-08-31T10:38:31.698Z,100.00
2022-08-31T10:41:11.316Z,100.00
2022-08-31T10:43:48.674Z,100.00
2022-08-31T10:46:17.275Z,100.00
2022-08-31T10:48:52.041Z,100.00
2022-08-31T10:51:27.861Z,100.00
2022-08-31T10:54:07.028Z,100.00
2022-08-31T10:56:49.709Z,100.00
2022-08-31T10:59:28.332Z,100.00
2022-08-31T11:02:03.220Z,100.00
2022-08-31T11:04:51.800Z,100.00
2022-08-31T11:07:46.555Z,100.00
2022-08-31T11:10:25.460Z,100.00
2022-08-31T11:12:58.144Z,100.00
2022-08-31T11:15:45.508Z,100.00
2022-08-31T11:18:40.209Z,100.00
2022-08-31T11:21:39.397Z,100.00
2022-08-31T11:24:28.230Z,100.00
2022-08-31T11:27:06.607Z,100.00
2022-08-31T11:29:43.193Z,100.00
2022-08-31T11:32:19.931Z,100.00
2022-08-31T11:34:51.352Z,100.00
2022-08-31T11:37:54.610Z,100.00
2022-08-31T11:41:03.620Z,100.00
2022-08-31T11:43:53.736Z,100.00
2022-08-31T11:47:05.131Z,100.00
2022-08-31T11:49:44.744Z,100.00
2022-08-31T11:52:30.859Z,100.00
2022-08-31T11:55:10.178Z,100.00
2022-08-31T11:58:20.706Z,100.00
2022-08-31T12:00:58.460Z,100.00
2022-08-31T12:03:37.987Z,100.00
2022-08-31T12:06:06.968Z,100.00
2022-08-31T12:08:49.489Z,100.00
2022-08-31T12:11:24.937Z,100.00
2022-08-31T12:14:01.221Z,100.00
2022-08-31T12:16:47.991Z,100.00
2022-08-31T12:19:46.736Z,100.00
2022-08-31T12:23:02.758Z,100.00
2022-08-31T12:25:40.731Z,100.00
2022-08-31T12:28:17.502Z,100.00
2022-08-31T12:30:51.101Z,100.00
2022-08-31T12:33:24.018Z,100.00
2022-08-31T12:35:54.754Z,100.00
2022-08-31T12:38:26.199Z,100.00
2022-08-31T12:40:55.837Z,100.00
2022-08-31T12:43:26.638Z,100.00
2022-08-31T12:46:19.651Z,100.00
2022-08-31T12:49:15.783Z,100.00
2022-08-31T12:51:47.434Z,100.00
2022-08-31T12:54:38.130Z,100.00
2022-08-31T12:57:11.364Z,100.00
2022-08-31T13:00:00.728Z,100.00
2022-08-31T13:02:31.860Z,100.00
2022-08-31T13:05:05.413Z,100.00
2022-08-31T13:07:35.637Z,100.00
2022-08-31T13:10:06.981Z,100.00
2022-08-31T13:12:34.667Z,100.00
2022-08-31T13:15:02.486Z,100.00
2022-08-31T13:17:35.428Z,100.00
2022-08-31T13:20:06.999Z,100.00
2022-08-31T13:22:41.369Z,100.00
2022-08-31T13:25:16.669Z,100.00
2022-08-31T13:27:49.886Z,100.00
2022-08-31T13:30:21.461Z,97.25
2022-08-31T13:32:51.141Z,99.81
2022-08-31T13:35:24.692Z,98.83
2022-08-31T13:38:05.189Z,97.81
2022-08-31T13:40:37.218Z,95.30
2022-08-31T13:43:09.415Z,94.89
2022-08-31T13:45:58.329Z,90.55
2022-08-31T13:48:31.387Z,86.22
2022-08-31T13:51:13.511Z,85.05
2022-08-31T13:53:44.978Z,85.54
2022-08-31T13:56:53.071Z,89.84
2022-08-31T13:59:36.958Z,87.77
2022-08-31T14:02:36.634Z,85.08
2022-08-31T14:05:12.692Z,83.15
2022-08-31T14:07:59.175Z,84.16
2022-08-31T14:10:31.941Z,83.37
2022-08-31T14:13:01.808Z,83.53
2022-08-31T14:15:36.504Z,86.10
2022-08-31T14:18:25.729Z,85.00
2022-08-31T14:21:21.949Z,87.64
2022-08-31T14:23:51.677Z,88.25
2022-08-31T14:26:22.749Z,85.21
2022-08-31T14:28:53.499Z,84.55
2022-08-31T14:31:25.469Z,83.52
2022-08-31T14:34:07.978Z,86.20
2022-08-31T14:36:52.645Z,83.03
2022-08-31T14:39:26.642Z,82.20
2022-08-31T14:41:56.564Z,81.60
2022-08-31T14:44:28.553Z,80.75
2022-08-31T14:46:56.713Z,80.69
2022-08-31T14:49:26.023Z,83.81
2022-08-31T14:51:55.088Z,81.29
2022-08-31T14:54:22.723Z,85.82
2022-08-31T14:56:56.022Z,86.22
2022-08-31T14:59:23.830Z,86.71
2022-08-31T15:01:51.594Z,90.60
2022-08-31T15:04:21.608Z,89.21
2022-08-31T15:06:54.924Z,87.67
2022-08-31T15:09:22.907Z,90.10
2022-08-31T15:11:51.277Z,90.86
2022-08-31T15:14:19.510Z,88.95
2022-08-31T15:16:50.721Z,86.80
2022-08-31T15:19:18.987Z,87.87
2022-08-31T15:21:52.784Z,88.49
2022-08-31T15:24:28.195Z,88.46
2022-08-31T15:26:58.552Z,88.34
2022-08-31T15:29:30.133Z,88.01
2022-08-31T15:31:59.748Z,88.99
2022-08-31T15:34:30.181Z,87.79
2022-08-31T15:37:02.143Z,89.22
2022-08-31T15:39:35.499Z,89.17
2022-08-31T15:42:08.971Z,89.63
2022-08-31T15:44:36.798Z,86.75
2022-08-31T15:47:22.105Z,86.62
2022-08-31T15:49:51.088Z,87.81
2022-08-31T15:52:20.185Z,87.21
2022-08-31T15:54:50.288Z,86.10
2022-08-31T15:57:18.066Z,86.41
2022-08-31T15:59:45.734Z,85.24
2022-08-31T16:02:15.375Z,84.78
2022-08-31T16:04:43.763Z,85.15
2022-08-31T16:07:13.049Z,84.63
2022-08-31T16:09:44.621Z,85.50
2022-08-31T16:12:14.342Z,83.87
2022-08-31T16:14:45.082Z,84.48
2022-08-31T16:17:17.511Z,84.83
2022-08-31T16:19:45.866Z,86.14
2022-08-31T16:22:13.613Z,86.53
2022-08-31T16:24:41.917Z,87.55
2022-08-31T16:27:12.183Z,87.58
2022-08-31T16:29:46.197Z,86.78
2022-08-31T16:32:14.530Z,78.97
2022-08-31T16:34:42.613Z,87.74
2022-08-31T16:37:10.597Z,88.96
2022-08-31T16:39:40.963Z,90.35
2022-08-31T16:42:11.181Z,90.90
2022-08-31T16:44:40.038Z,91.98
2022-08-31T16:47:11.370Z,92.22
2022-08-31T16:49:41.089Z,92.23
2022-08-31T16:52:11.083Z,93.91
2022-08-31T16:54:42.647Z,94.71
2022-08-31T16:57:10.760Z,96.41
2022-08-31T16:59:38.473Z,97.91
2022-08-31T17:02:06.379Z,99.57
2022-08-31T17:07:20.314Z,100.00
2022-08-31T17:09:47.998Z,100.00
2022-08-31T17:12:17.614Z,100.00
2022-08-31T17:14:48.490Z,100.00
2022-08-31T17:17:19.583Z,100.00
2022-08-31T17:19:49.147Z,100.00
2022-08-31T17:22:24.420Z,100.00
2022-08-31T17:24:57.458Z,100.00
2022-08-31T17:27:27.329Z,100.00
2022-08-31T17:29:56.441Z,100.00
2022-08-31T17:32:27.889Z,100.00
2022-08-31T17:34:57.315Z,100.00
2022-08-31T17:37:28.344Z,100.00
2022-08-31T17:39:57.179Z,100.00
2022-08-31T17:42:26.710Z,100.00
2022-08-31T17:44:55.355Z,100.00
2022-08-31T17:47:24.687Z,100.00
2022-08-31T17:49:52.914Z,100.00
2022-08-31T17:52:23.102Z,100.00
2022-08-31T17:54:52.176Z,100.00
2022-08-31T17:57:24.820Z,100.00
2022-08-31T17:59:54.640Z,100.00
2022-08-31T18:02:26.474Z,100.00
2022-08-31T18:04:54.578Z,100.00
2022-08-31T18:07:23.854Z,100.00
2022-08-31T18:09:51.675Z,100.00
2022-08-31T18:12:22.026Z,100.00
2022-08-31T18:14:50.012Z,100.00
2022-08-31T18:17:18.267Z,100.00
2022-08-31T18:19:46.582Z,100.00
2022-08-31T18:22:15.183Z,100.00
2022-08-31T18:24:44.626Z,100.00
2022-08-31T18:27:15.359Z,100.00
2022-08-31T18:29:44.055Z,100.00
2022-08-31T18:32:12.240Z,100.00
2022-08-31T18:34:44.744Z,100.00
2022-08-31T18:37:13.732Z,100.00
2022-08-31T18:39:59.014Z,100.00
2022-08-31T18:42:47.397Z,100.00
2022-08-31T18:45:21.196Z,100.00
2022-08-31T18:50:44.265Z,100.00
2022-08-31T18:53:15.638Z,100.00
2022-08-31T18:55:54.475Z,100.00
2022-08-31T18:58:23.883Z,100.00
2022-08-31T19:00:57.437Z,100.00
2022-08-31T19:03:27.330Z,100.00
2022-08-31T19:05:56.508Z,100.00
2022-08-31T19:08:24.629Z,100.00
2022-08-31T19:10:54.182Z,100.00
2022-08-31T19:13:24.483Z,100.00
2022-08-31T19:15:52.201Z,100.00
2022-08-31T19:18:20.199Z,100.00
2022-08-31T19:20:47.816Z,100.00
2022-08-31T19:23:19.829Z,100.00
2022-08-31T19:25:48.448Z,100.00
2022-08-31T19:28:16.202Z,100.00
2022-08-31T19:30:48.651Z,100.00
2022-08-31T19:33:16.492Z,100.00
2022-08-31T19:35:44.223Z,100.00
2022-08-31T19:38:12.104Z,100.00
2022-08-31T19:40:40.574Z,100.00
2022-08-31T19:46:09.483Z,100.00
2022-08-31T19:48:45.969Z,100.00
2022-08-31T19:51:15.515Z,100.00
2022-08-31T19:53:45.035Z,100.00
2022-08-31T19:56:17.244Z,100.00
2022-08-31T19:58:46.946Z,100.00
2022-08-31T20:01:18.324Z,100.00
2022-08-31T20:03:48.113Z,100.00
2022-08-31T20:06:20.215Z,100.00
2022-08-31T20:08:50.478Z,100.00
2022-08-31T20:11:22.701Z,100.00
2022-08-31T20:13:50.556Z,100.00
2022-08-31T20:16:22.515Z,100.00
2022-08-31T20:19:01.385Z,100.00
2022-08-31T20:21:31.060Z,100.00
2022-08-31T20:24:02.866Z,100.00
2022-08-31T20:26:36.402Z,100.00
2022-08-31T20:29:10.908Z,100.00
2022-08-31T20:31:42.839Z,100.00
2022-08-31T20:34:18.411Z,100.00
2022-08-31T20:36:48.194Z,100.00
2022-08-31T20:39:19.153Z,100.00
2022-08-31T20:41:48.537Z,100.00
2022-08-31T20:44:18.623Z,100.00
2022-08-31T20:47:08.302Z,100.00
2022-08-31T20:49:39.040Z,100.00
2022-08-31T20:52:08.621Z,100.00
2022-08-31T20:54:37.511Z,100.00
2022-08-31T20:57:09.071Z,100.00
2022-08-31T20:59:38.434Z,100.00
2022-08-31T21:02:08.744Z,100.00
2022-08-31T21:04:39.161Z,100.00
2022-08-31T21:07:08.734Z,100.00
2022-08-31T21:09:36.382Z,100.00
2022-08-31T21:12:07.975Z,100.00
2022-08-31T21:14:36.566Z,100.00
2022-08-31T21:17:06.024Z,100.00
2022-08-31T21:19:39.272Z,100.00
2022-08-31T21:22:10.161Z,100.00
2022-08-31T21:24:39.355Z,100.00
2022-08-31T21:27:10.382Z,100.00
2022-08-31T21:29:38.904Z,100.00
2022-08-31T21:32:08.540Z,100.00
2022-08-31T21:34:38.884Z,100.00
2022-08-31T21:37:06.740Z,100.00
2022-08-31T21:39:34.418Z,100.00
2022-08-31T21:42:02.335Z,100.00
2022-08-31T21:44:30.082Z,100.00
2022-08-31T21:46:57.776Z,100.00
2022-08-31T21:49:25.734Z,100.00
2022-08-31T21:51:57.998Z,100.00
2022-08-31T21:54:28.498Z,100.00
2022-08-31T21:56:59.156Z,100.00
2022-08-31T21:59:29.398Z,100.00
2022-08-31T22:01:58.969Z,100.00
2022-08-31T22:04:27.862Z,100.00
2022-08-31T22:06:57.579Z,100.00
2022-08-31T22:09:26.266Z,100.00
2022-08-31T22:11:57.662Z,100.00
2022-08-31T22:14:29.646Z,100.00
2022-08-31T22:16:58.990Z,100.00
2022-08-31T22:19:28.427Z,100.00
2022-08-31T22:22:00.125Z,100.00
2022-08-31T22:24:31.268Z,100.00
2022-08-31T22:27:01.214Z,100.00
2022-08-31T22:29:32.138Z,100.00
2022-08-31T22:32:02.237Z,100.00
2022-08-31T22:34:30.253Z,100.00
2022-08-31T22:36:59.334Z,100.00
2022-08-31T22:39:30.518Z,100.00
2022-08-31T22:42:01.283Z,100.00
2022-08-31T22:44:34.198Z,100.00
2022-08-31T22:47:02.154Z,100.00
2022-08-31T22:49:30.795Z,100.00
2022-08-31T22:51:59.813Z,100.00
2022-08-31T22:54:28.252Z,100.00
2022-08-31T22:56:55.987Z,100.00
2022-08-31T22:59:27.348Z,100.00
2022-08-31T23:01:57.797Z,100.00
2022-08-31T23:04:28.174Z,100.00
2022-08-31T23:06:57.410Z,100.00
2022-08-31T23:09:30.565Z,100.00
2022-08-31T23:12:00.825Z,100.00
2022-08-31T23:14:29.298Z,100.00
2022-08-31T23:17:00.676Z,100.00
2022-08-31T23:19:32.903Z,100.00
2022-08-31T23:22:01.967Z,100.00
2022-08-31T23:24:34.547Z,100.00
2022-08-31T23:27:04.602Z,100.00
2022-08-31T23:29:34.458Z,100.00
2022-08-31T23:32:02.789Z,100.00
2022-08-31T23:34:30.883Z,100.00
2022-08-31T23:36:58.538Z,100.00
2022-08-31T23:39:26.408Z,100.00
2022-08-31T23:41:55.442Z,100.00
2022-08-31T23:44:24.554Z,100.00
2022-08-31T23:46:52.426Z,100.00
2022-08-31T23:49:20.994Z,100.00
2022-08-31T23:51:49.851Z,100.00
2022-08-31T23:54:18.364Z,100.00
2022-08-31T23:56:48.350Z,100.00
2022-08-31T23:59:19.614Z,100.00
